Watervliet, MI (49098)

8:57 AM EDT on October 23, 2017 (GMT -0400)
MMIBBC | | Change Station

Elev 734 ft 42.13 °N, 86.27 °W | Updated 161 days ago

Rain
Rain
59.0 °F
Feels Like 59.0 °F
N
4.0
Wind Variable Wind from North

Today
High -- | Low -- °F
--% Chance of Precip.
Yesterday
High -- | Low -- °F
Precip. -- in
Pressure 29.85 in
Visibility 4.0 miles
Clouds Mostly Cloudy 700 ft
Overcast 1400 ft
Dew Point 38 °F
Humidity 44%
Rainfall 0.35 in
Snow Depth Not available.
8:07 AM 6:50 PM
Waxing Crescent, 13% visible
METAR KBEH 231253Z AUTO 04008KT 4SM RA BR BKN007 OVC014 13/11 A2984 RMK AO2 SLP106 P0011 T01280111
Pressure 29.85 in
Visibility 4.0 miles
Clouds Mostly Cloudy 700 ft
Overcast 1400 ft
Dew Point 38 °F
Humidity 44%
Rainfall 0.35 in
Snow Depth Not available.
8:07 AM 6:50 PM
Waxing Crescent, 13% visible
METAR KBEH 231253Z AUTO 04008KT 4SM RA BR BKN007 OVC014 13/11 A2984 RMK AO2 SLP106 P0011 T01280111

Get Severe Weather Alerts

Thanks for signing up!

Be on the lookout for a verification email in your inbox.

You'll start receiving the daily forecast at 6 AM.

×

10-Day Weather Forecast

Almanac

Astronomy

Oct. 23, 2017 Rise Set
Actual Time
Civil Twilight
Nautical Twilight
Astronomical Twilight
Moon
Length of Visible Light
Length of Day
Tomorrow will be .
, % of the Moon is Illuminated

Today's Extremes

State Highs State Lows

Community

WunderPhotos

Category 6

Welcome to Category 6. This is the collective home for Weather Underground's featured writeups by Dr. Jeff Masters (right), Bob Henson (left), Chris Burt, and other regular contributors.

Nearby

Air Quality

  Air Quality AQ Index Pollutant
Not available.

Snow Depth

Station Depth Elevation

Earthquake Activity

City Distance Mag. Time & Date
Minimum magnitude displayed is 2.5.

Coastal Water Temperatures

Place Temperature

Stations

Nearby Weather Stations

Station Location Temp. Windchill Dew Point Humidity Wind Precip. Elev Updated Type
                   

Watches & Warnings

There are currently no watches in effect.